sensor_id;sensor_type;location;lat;lon;timestamp;P1;durP1;ratioP1;P2;durP2;ratioP2
12373;SDS011;6251;51.762;8.660;2023-02-28T00:02:09;5.80;;;3.67;;
12373;SDS011;6251;51.762;8.660;2023-02-28T00:12:10;2.97;;;2.67;;
12373;SDS011;6251;51.762;8.660;2023-02-28T02:03:55;2.57;;;2.47;;
12373;SDS011;6251;51.762;8.660;2023-02-28T03:45:44;2.07;;;1.97;;
12373;SDS011;6251;51.762;8.660;2023-02-28T03:56:07;3.07;;;2.20;;
12373;SDS011;6251;51.762;8.660;2023-02-28T05:07:19;2.93;;;2.63;;
12373;SDS011;6251;51.762;8.660;2023-02-28T05:17:19;3.13;;;2.30;;
12373;SDS011;6251;51.762;8.660;2023-02-28T05:27:20;3.37;;;2.45;;
12373;SDS011;6251;51.762;8.660;2023-02-28T05:37:20;3.05;;;2.75;;
12373;SDS011;6251;51.762;8.660;2023-02-28T05:47:21;3.13;;;2.90;;
12373;SDS011;6251;51.762;8.660;2023-02-28T05:57:22;3.40;;;3.03;;
12373;SDS011;6251;51.762;8.660;2023-02-28T06:07:23;4.93;;;3.40;;
12373;SDS011;6251;51.762;8.660;2023-02-28T06:17:23;7.53;;;5.43;;
12373;SDS011;6251;51.762;8.660;2023-02-28T06:27:24;3.93;;;3.60;;
12373;SDS011;6251;51.762;8.660;2023-02-28T06:37:25;3.60;;;3.30;;
12373;SDS011;6251;51.762;8.660;2023-02-28T06:47:28;6.13;;;4.13;;
12373;SDS011;6251;51.762;8.660;2023-02-28T06:57:31;3.50;;;3.10;;
12373;SDS011;6251;51.762;8.660;2023-02-28T07:07:32;5.50;;;3.90;;
12373;SDS011;6251;51.762;8.660;2023-02-28T07:17:34;3.23;;;2.93;;
12373;SDS011;6251;51.762;8.660;2023-02-28T07:27:34;2.80;;;2.60;;
12373;SDS011;6251;51.762;8.660;2023-02-28T07:37:35;3.23;;;2.87;;
12373;SDS011;6251;51.762;8.660;2023-02-28T07:47:36;2.80;;;2.37;;
12373;SDS011;6251;51.762;8.660;2023-02-28T07:57:41;3.07;;;2.70;;
12373;SDS011;6251;51.762;8.660;2023-02-28T08:07:41;2.87;;;2.70;;
12373;SDS011;6251;51.762;8.660;2023-02-28T08:17:42;2.85;;;2.50;;
12373;SDS011;6251;51.762;8.660;2023-02-28T08:27:42;3.40;;;3.10;;
12373;SDS011;6251;51.762;8.660;2023-02-28T08:37:43;6.40;;;5.20;;
12373;SDS011;6251;51.762;8.660;2023-02-28T08:47:44;6.37;;;5.20;;
12373;SDS011;6251;51.762;8.660;2023-02-28T08:57:44;3.30;;;3.00;;
12373;SDS011;6251;51.762;8.660;2023-02-28T09:07:45;4.00;;;2.90;;
12373;SDS011;6251;51.762;8.660;2023-02-28T09:17:45;3.07;;;2.77;;
12373;SDS011;6251;51.762;8.660;2023-02-28T09:27:46;2.90;;;2.70;;
12373;SDS011;6251;51.762;8.660;2023-02-28T09:37:50;3.90;;;3.07;;
12373;SDS011;6251;51.762;8.660;2023-02-28T09:47:54;3.33;;;2.93;;
12373;SDS011;6251;51.762;8.660;2023-02-28T09:57:58;3.37;;;2.80;;
12373;SDS011;6251;51.762;8.660;2023-02-28T10:08:02;2.90;;;2.70;;
12373;SDS011;6251;51.762;8.660;2023-02-28T10:18:05;3.33;;;3.03;;
12373;SDS011;6251;51.762;8.660;2023-02-28T10:28:14;3.47;;;3.07;;
12373;SDS011;6251;51.762;8.660;2023-02-28T10:38:22;3.40;;;3.10;;
12373;SDS011;6251;51.762;8.660;2023-02-28T10:48:33;3.70;;;2.97;;
12373;SDS011;6251;51.762;8.660;2023-02-28T10:59:22;4.03;;;3.07;;
12373;SDS011;6251;51.762;8.660;2023-02-28T11:09:35;3.10;;;2.87;;
12373;SDS011;6251;51.762;8.660;2023-02-28T11:19:40;3.43;;;3.13;;
12373;SDS011;6251;51.762;8.660;2023-02-28T11:29:46;4.13;;;3.30;;
12373;SDS011;6251;51.762;8.660;2023-02-28T11:39:47;3.07;;;2.87;;
12373;SDS011;6251;51.762;8.660;2023-02-28T12:31:34;2.58;;;2.47;;
12373;SDS011;6251;51.762;8.660;2023-02-28T12:41:42;2.35;;;2.25;;
12373;SDS011;6251;51.762;8.660;2023-02-28T12:51:48;4.93;;;2.90;;
12373;SDS011;6251;51.762;8.660;2023-02-28T13:12:01;3.28;;;2.40;;
12373;SDS011;6251;51.762;8.660;2023-02-28T13:32:54;2.87;;;2.67;;
12373;SDS011;6251;51.762;8.660;2023-02-28T13:43:58;2.97;;;2.77;;
12373;SDS011;6251;51.762;8.660;2023-02-28T14:04:46;3.12;;;2.80;;
12373;SDS011;6251;51.762;8.660;2023-02-28T14:45:32;3.45;;;3.15;;
12373;SDS011;6251;51.762;8.660;2023-02-28T14:55:35;3.62;;;3.25;;
12373;SDS011;6251;51.762;8.660;2023-02-28T15:05:37;3.58;;;3.30;;
12373;SDS011;6251;51.762;8.660;2023-02-28T15:25:44;3.23;;;3.03;;
12373;SDS011;6251;51.762;8.660;2023-02-28T15:35:44;3.53;;;3.25;;
12373;SDS011;6251;51.762;8.660;2023-02-28T15:45:47;3.70;;;3.37;;
12373;SDS011;6251;51.762;8.660;2023-02-28T15:56:02;3.70;;;3.40;;
12373;SDS011;6251;51.762;8.660;2023-02-28T16:06:23;4.50;;;4.10;;
12373;SDS011;6251;51.762;8.660;2023-02-28T16:16:34;3.63;;;3.37;;
12373;SDS011;6251;51.762;8.660;2023-02-28T16:26:45;3.20;;;3.00;;
12373;SDS011;6251;51.762;8.660;2023-02-28T16:36:48;4.23;;;3.83;;
12373;SDS011;6251;51.762;8.660;2023-02-28T16:46:50;4.03;;;3.60;;
12373;SDS011;6251;51.762;8.660;2023-02-28T16:56:50;5.37;;;4.67;;
12373;SDS011;6251;51.762;8.660;2023-02-28T17:06:58;7.53;;;5.40;;
12373;SDS011;6251;51.762;8.660;2023-02-28T17:16:58;5.20;;;4.70;;
12373;SDS011;6251;51.762;8.660;2023-02-28T17:26:59;5.03;;;4.43;;
12373;SDS011;6251;51.762;8.660;2023-02-28T17:37:00;4.63;;;4.27;;
12373;SDS011;6251;51.762;8.660;2023-02-28T17:47:00;5.77;;;5.10;;
12373;SDS011;6251;51.762;8.660;2023-02-28T17:57:01;5.40;;;4.90;;
12373;SDS011;6251;51.762;8.660;2023-02-28T18:07:01;7.83;;;6.33;;
12373;SDS011;6251;51.762;8.660;2023-02-28T18:17:02;8.43;;;6.37;;
12373;SDS011;6251;51.762;8.660;2023-02-28T18:27:03;6.33;;;5.43;;
12373;SDS011;6251;51.762;8.660;2023-02-28T18:37:05;7.27;;;6.53;;
12373;SDS011;6251;51.762;8.660;2023-02-28T18:47:06;6.93;;;5.53;;
12373;SDS011;6251;51.762;8.660;2023-02-28T18:57:07;6.03;;;4.83;;
12373;SDS011;6251;51.762;8.660;2023-02-28T19:07:23;5.63;;;4.83;;
12373;SDS011;6251;51.762;8.660;2023-02-28T19:17:23;5.77;;;4.30;;
12373;SDS011;6251;51.762;8.660;2023-02-28T19:27:24;9.03;;;5.73;;
12373;SDS011;6251;51.762;8.660;2023-02-28T19:37:25;17.40;;;9.50;;
12373;SDS011;6251;51.762;8.660;2023-02-28T19:47:25;20.57;;;10.07;;
12373;SDS011;6251;51.762;8.660;2023-02-28T19:57:27;14.83;;;8.80;;
12373;SDS011;6251;51.762;8.660;2023-02-28T20:07:28;11.33;;;7.17;;
12373;SDS011;6251;51.762;8.660;2023-02-28T20:17:30;10.43;;;7.70;;
12373;SDS011;6251;51.762;8.660;2023-02-28T20:27:31;12.10;;;7.90;;
12373;SDS011;6251;51.762;8.660;2023-02-28T20:37:32;7.37;;;6.53;;
12373;SDS011;6251;51.762;8.660;2023-02-28T20:47:33;8.60;;;5.97;;
12373;SDS011;6251;51.762;8.660;2023-02-28T20:57:33;8.53;;;6.33;;
12373;SDS011;6251;51.762;8.660;2023-02-28T21:07:34;10.03;;;7.37;;
12373;SDS011;6251;51.762;8.660;2023-02-28T21:17:35;20.10;;;11.80;;
12373;SDS011;6251;51.762;8.660;2023-02-28T21:27:35;9.70;;;7.20;;
12373;SDS011;6251;51.762;8.660;2023-02-28T21:37:36;11.30;;;7.57;;
12373;SDS011;6251;51.762;8.660;2023-02-28T21:47:37;10.80;;;7.20;;
12373;SDS011;6251;51.762;8.660;2023-02-28T21:57:38;7.47;;;5.87;;
